Terminal Aerodrome Forecast
Issued by NWS Rapid City, SD

Home | Current Version | Previous Version | Graphics & Text | Print | Product List | Glossary On
Versions: 1 2 3 4 5 6 7 8 9 10 11 12 13 14 15 16 17
000
FTUS43 KUNR 151720
TAFRAP
TAF
KRAP 151720Z 1518/1618 35016G26KT P6SM BKN050
     FM152000 36018G28KT P6SM -SHRA BKN025
     FM160100 33016G26KT P6SM -RA OVC020
     FM160900 34015KT P6SM -RA OVC008=

USA.gov is the U.S. government's official web portal to all federal, state and local government web resources and services.